createdAt,value
2023-04-19T00:00:45.736Z,4.05
2023-04-19T00:03:14.587Z,4.50
2023-04-19T00:05:42.531Z,4.28
2023-04-19T00:08:09.792Z,3.97
2023-04-19T00:10:37.607Z,4.38
2023-04-19T00:13:04.880Z,4.10
2023-04-19T00:15:32.351Z,4.47
2023-04-19T00:17:59.660Z,4.60
2023-04-19T00:20:27.208Z,4.37
2023-04-19T00:22:54.539Z,4.45
2023-04-19T00:25:21.776Z,4.00
2023-04-19T00:27:49.026Z,4.30
2023-04-19T00:30:16.279Z,4.33
2023-04-19T00:32:43.595Z,4.32
2023-04-19T00:35:11.169Z,4.37
2023-04-19T00:37:38.401Z,4.30
2023-04-19T00:40:06.115Z,4.00
2023-04-19T00:42:33.357Z,4.00
2023-04-19T00:45:00.622Z,4.13
2023-04-19T00:47:27.868Z,4.53
2023-04-19T00:49:55.668Z,4.00
2023-04-19T00:52:25.969Z,3.63
2023-04-19T00:54:54.556Z,4.00
2023-04-19T00:57:23.003Z,3.92
2023-04-19T00:59:50.229Z,4.35
2023-04-19T01:02:17.765Z,3.85
2023-04-19T01:04:45.769Z,3.80
2023-04-19T01:07:12.969Z,3.88
2023-04-19T01:09:44.608Z,3.95
2023-04-19T01:12:11.850Z,3.60
2023-04-19T01:14:39.104Z,4.05
2023-04-19T01:17:07.489Z,3.83
2023-04-19T01:19:34.997Z,3.70
2023-04-19T01:22:04.060Z,4.05
2023-04-19T01:24:31.896Z,3.80
2023-04-19T01:26:59.158Z,4.00
2023-04-19T01:29:26.385Z,4.15
2023-04-19T01:31:53.938Z,3.80
2023-04-19T01:34:23.200Z,4.15
2023-04-19T01:36:50.584Z,4.00
2023-04-19T01:39:17.996Z,3.87
2023-04-19T01:41:45.390Z,4.10
2023-04-19T01:46:42.729Z,3.77
2023-04-19T01:49:10.473Z,3.88
2023-04-19T01:51:38.927Z,3.90
2023-04-19T01:54:06.191Z,4.35
2023-04-19T01:56:33.474Z,4.05
2023-04-19T01:59:00.812Z,4.03
2023-04-19T02:01:28.261Z,4.07
2023-04-19T02:03:55.836Z,4.10
2023-04-19T02:06:23.172Z,4.05
2023-04-19T02:08:50.388Z,3.73
2023-04-19T02:11:17.617Z,3.83
2023-04-19T02:13:44.916Z,3.80
2023-04-19T02:16:12.267Z,3.63
2023-04-19T02:18:40.491Z,3.50
2023-04-19T02:23:35.553Z,3.80
2023-04-19T02:26:03.311Z,3.80
2023-04-19T02:28:33.359Z,3.83
2023-04-19T02:31:04.648Z,3.80
2023-04-19T02:33:31.864Z,3.70
2023-04-19T02:35:59.088Z,3.90
2023-04-19T02:38:26.339Z,3.58
2023-04-19T02:40:53.694Z,4.05
2023-04-19T02:43:20.915Z,3.80
2023-04-19T02:45:48.186Z,3.70
2023-04-19T02:48:15.500Z,3.70
2023-04-19T02:50:42.770Z,3.67
2023-04-19T02:53:10.025Z,3.80
2023-04-19T02:55:37.245Z,3.90
2023-04-19T02:58:04.490Z,3.65
2023-04-19T03:00:34.193Z,3.47
2023-04-19T03:03:04.336Z,3.83
2023-04-19T03:05:32.021Z,3.58
2023-04-19T03:07:59.340Z,3.60
2023-04-19T03:10:26.582Z,3.73
2023-04-19T03:12:53.818Z,3.77
2023-04-19T03:15:22.265Z,3.65
2023-04-19T03:17:49.595Z,3.78
2023-04-19T03:20:17.212Z,3.37
2023-04-19T03:22:44.464Z,3.60
2023-04-19T03:25:13.527Z,3.45
2023-04-19T03:27:40.839Z,3.53
2023-04-19T03:30:08.441Z,3.40
2023-04-19T03:32:35.754Z,3.60
2023-04-19T03:35:03.197Z,3.27
2023-04-19T03:37:30.491Z,3.50
2023-04-19T03:39:57.729Z,3.93
2023-04-19T03:42:25.994Z,3.63
2023-04-19T03:44:55.164Z,3.33
2023-04-19T03:47:22.426Z,3.50
2023-04-19T03:49:49.679Z,3.33
2023-04-19T03:52:16.910Z,3.40
2023-04-19T03:54:44.147Z,3.60
2023-04-19T03:57:13.656Z,3.70
2023-04-19T03:59:41.043Z,3.75
2023-04-19T04:02:08.733Z,3.60
2023-04-19T04:04:36.210Z,3.78
2023-04-19T04:07:03.611Z,3.47
2023-04-19T04:09:31.334Z,3.37
2023-04-19T04:11:58.586Z,3.53
2023-04-19T04:14:25.867Z,3.42
2023-04-19T04:16:55.648Z,3.83
2023-04-19T04:19:22.887Z,3.67
2023-04-19T04:21:50.145Z,3.53
2023-04-19T04:24:18.030Z,3.60
2023-04-19T04:26:45.287Z,3.30
2023-04-19T04:29:12.594Z,3.70
2023-04-19T04:31:39.878Z,3.53
2023-04-19T04:34:09.157Z,3.50
2023-04-19T04:36:37.584Z,3.63
2023-04-19T04:39:06.383Z,3.63
2023-04-19T04:41:35.960Z,3.63
2023-04-19T04:44:12.531Z,3.55
2023-04-19T04:46:42.683Z,3.50
2023-04-19T04:49:09.908Z,3.60
2023-04-19T04:51:37.495Z,3.63
2023-04-19T04:54:05.552Z,3.63
2023-04-19T04:56:32.793Z,3.70
2023-04-19T04:59:00.053Z,3.42
2023-04-19T05:01:27.374Z,3.80
2023-04-19T05:03:54.668Z,3.90
2023-04-19T05:06:21.944Z,3.73
2023-04-19T05:08:49.184Z,3.83
2023-04-19T05:11:16.504Z,4.40
2023-04-19T05:13:43.721Z,4.07
2023-04-19T05:16:11.107Z,4.55
2023-04-19T05:18:38.365Z,4.30
2023-04-19T05:21:06.897Z,4.40
2023-04-19T05:23:34.136Z,4.35
2023-04-19T05:26:01.428Z,4.43
2023-04-19T05:28:28.670Z,4.60
2023-04-19T05:30:55.984Z,4.53
2023-04-19T05:33:23.192Z,4.20
2023-04-19T05:35:50.408Z,4.32
2023-04-19T05:38:18.778Z,4.07
2023-04-19T05:40:46.043Z,4.88
2023-04-19T05:43:15.881Z,4.80
2023-04-19T05:45:43.220Z,4.95
2023-04-19T05:48:10.563Z,4.43
2023-04-19T05:50:37.840Z,5.00
2023-04-19T05:53:05.544Z,4.80
2023-04-19T05:55:32.772Z,4.57
2023-04-19T05:58:00.759Z,4.70
2023-04-19T06:00:28.585Z,4.70
2023-04-19T06:02:55.963Z,4.80
2023-04-19T06:05:23.527Z,5.28
2023-04-19T06:07:55.746Z,4.88
2023-04-19T06:10:40.456Z,5.30
2023-04-19T06:13:17.099Z,5.15
2023-04-19T06:15:44.379Z,5.30
2023-04-19T06:18:19.164Z,6.83
2023-04-19T06:20:47.782Z,6.35
2023-04-19T06:23:15.378Z,6.57
2023-04-19T06:25:42.863Z,6.30
2023-04-19T06:28:11.093Z,6.07
2023-04-19T06:33:05.547Z,6.43
2023-04-19T06:35:33.293Z,5.77
2023-04-19T06:38:00.584Z,7.43
2023-04-19T06:40:29.389Z,7.53
2023-04-19T06:42:56.742Z,8.82
2023-04-19T06:45:24.029Z,9.17
2023-04-19T06:47:51.380Z,9.47
2023-04-19T06:50:18.778Z,8.50
2023-04-19T06:52:45.995Z,8.83
2023-04-19T06:55:13.268Z,9.27
2023-04-19T06:57:40.923Z,8.40
2023-04-19T07:00:08.410Z,9.50
2023-04-19T07:02:35.977Z,8.60
2023-04-19T07:05:03.858Z,8.52
2023-04-19T07:07:31.123Z,9.63
2023-04-19T07:09:58.327Z,8.82
2023-04-19T07:12:25.655Z,9.60
2023-04-19T07:14:56.505Z,9.77
2023-04-19T07:17:24.584Z,9.18
2023-04-19T07:19:51.907Z,8.82
2023-04-19T07:22:19.159Z,8.47
2023-04-19T07:24:46.441Z,8.60
2023-04-19T07:27:14.506Z,7.97
2023-04-19T07:32:08.990Z,8.05
2023-04-19T07:34:37.671Z,7.00
2023-04-19T07:37:04.895Z,7.40
2023-04-19T07:39:32.140Z,7.35
2023-04-19T07:41:59.485Z,7.22
2023-04-19T07:44:26.899Z,6.53
2023-04-19T07:46:54.316Z,6.20
2023-04-19T07:49:21.559Z,7.00
2023-04-19T07:51:49.348Z,6.47
2023-04-19T07:54:18.058Z,6.55
2023-04-19T07:56:45.893Z,6.45
2023-04-19T07:59:13.126Z,6.68
2023-04-19T08:01:40.549Z,6.80
2023-04-19T08:04:08.263Z,7.07
2023-04-19T08:06:38.082Z,6.85
2023-04-19T08:09:05.328Z,7.40
2023-04-19T08:11:32.600Z,8.00
2023-04-19T08:14:09.362Z,7.13
2023-04-19T08:17:19.037Z,7.50
2023-04-19T08:19:29.522Z,8.05
2023-04-19T08:21:57.345Z,7.43
2023-04-19T08:24:26.960Z,7.25
2023-04-19T08:26:54.659Z,7.05
2023-04-19T08:29:22.321Z,7.60
2023-04-19T08:31:49.957Z,7.20
2023-04-19T08:34:17.260Z,7.00
2023-04-19T08:36:55.790Z,6.70
2023-04-19T08:39:33.549Z,6.30
2023-04-19T08:42:13.336Z,5.60
2023-04-19T08:45:06.395Z,5.63
2023-04-19T08:50:24.051Z,5.63
2023-04-19T08:53:02.790Z,5.20
2023-04-19T08:55:39.830Z,5.22
2023-04-19T08:58:15.254Z,4.75
2023-04-19T09:00:46.504Z,4.93
2023-04-19T09:03:16.368Z,5.00
2023-04-19T09:05:44.068Z,4.70
2023-04-19T09:08:33.374Z,5.35
2023-04-19T09:11:01.565Z,4.60
2023-04-19T09:16:05.490Z,4.60
2023-04-19T09:18:35.951Z,4.65
2023-04-19T09:21:07.300Z,4.53
2023-04-19T09:23:34.553Z,5.05
2023-04-19T09:28:34.637Z,4.85
2023-04-19T09:31:33.253Z,4.60
2023-04-19T09:34:30.810Z,4.50
2023-04-19T09:37:11.011Z,4.10
2023-04-19T09:39:39.105Z,4.30
2023-04-19T09:42:07.152Z,4.13
2023-04-19T09:45:02.220Z,4.63
2023-04-19T09:47:24.183Z,4.32
2023-04-19T09:50:22.688Z,4.30
2023-04-19T09:52:52.922Z,4.30
2023-04-19T09:57:52.696Z,4.78
2023-04-19T10:00:21.692Z,4.20
2023-04-19T10:02:55.895Z,4.00
2023-04-19T10:05:24.292Z,4.53
2023-04-19T10:07:53.701Z,3.85
2023-04-19T10:10:30.252Z,3.92
2023-04-19T10:15:51.208Z,4.20
2023-04-19T10:18:21.296Z,4.13
2023-04-19T10:20:53.136Z,4.40
2023-04-19T10:23:21.160Z,4.00
2023-04-19T10:25:48.901Z,3.88
2023-04-19T10:28:17.227Z,3.95
2023-04-19T10:30:55.861Z,4.35
2023-04-19T10:33:27.791Z,4.18
2023-04-19T10:36:01.438Z,3.97
2023-04-19T10:38:44.684Z,3.88
2023-04-19T10:41:15.534Z,3.75
2023-04-19T10:43:56.111Z,4.28
2023-04-19T10:46:25.653Z,3.70
2023-04-19T10:49:00.107Z,3.90
2023-04-19T10:51:30.304Z,3.88
2023-04-19T10:54:01.851Z,3.90
2023-04-19T10:56:35.630Z,3.95
2023-04-19T10:59:05.677Z,3.85
2023-04-19T11:01:39.606Z,3.92
2023-04-19T11:04:16.905Z,4.05
2023-04-19T11:06:53.713Z,3.40
2023-04-19T11:09:26.799Z,3.90
2023-04-19T11:11:55.091Z,3.88
2023-04-19T11:14:22.318Z,3.85
2023-04-19T11:16:49.599Z,3.85
2023-04-19T11:19:17.783Z,3.90
2023-04-19T11:21:49.169Z,3.80
2023-04-19T11:24:18.829Z,4.10
2023-04-19T11:26:53.259Z,3.40
2023-04-19T11:29:22.133Z,3.65
2023-04-19T11:31:49.488Z,4.07
2023-04-19T11:34:17.175Z,3.83
2023-04-19T11:36:48.279Z,3.67
2023-04-19T11:39:15.539Z,3.80
2023-04-19T11:41:47.294Z,3.67
2023-04-19T11:44:20.393Z,3.55
2023-04-19T11:47:00.944Z,3.70
2023-04-19T11:49:29.110Z,3.90
2023-04-19T11:52:05.600Z,3.50
2023-04-19T11:54:34.016Z,3.70
2023-04-19T11:57:05.432Z,3.42
2023-04-19T11:59:33.430Z,3.88
2023-04-19T12:02:13.461Z,3.50
2023-04-19T12:04:41.738Z,4.00
2023-04-19T12:07:11.128Z,3.55
2023-04-19T12:09:38.968Z,3.40
2023-04-19T12:12:06.865Z,3.30
2023-04-19T12:14:34.328Z,3.47
2023-04-19T12:17:10.762Z,3.15
2023-04-19T12:19:48.205Z,3.55
2023-04-19T12:22:24.229Z,3.50
2023-04-19T12:24:55.334Z,3.33
2023-04-19T12:27:22.741Z,3.50
2023-04-19T12:29:49.990Z,3.57
2023-04-19T12:32:17.360Z,3.33
2023-04-19T12:34:44.648Z,3.58
2023-04-19T12:37:12.123Z,3.45
2023-04-19T12:39:39.437Z,3.20
2023-04-19T12:42:06.708Z,3.03
2023-04-19T12:44:34.092Z,3.40
2023-04-19T12:47:01.350Z,3.30
2023-04-19T12:49:28.547Z,3.07
2023-04-19T12:51:57.387Z,3.03
2023-04-19T12:54:24.907Z,3.28
2023-04-19T12:56:52.216Z,3.30
2023-04-19T12:59:19.651Z,3.22
2023-04-19T13:01:47.021Z,3.30
2023-04-19T13:04:14.520Z,3.40
2023-04-19T13:06:43.331Z,3.50
2023-04-19T13:11:40.650Z,3.22
2023-04-19T13:14:08.141Z,2.97
2023-04-19T13:16:35.386Z,3.10
2023-04-19T13:19:02.637Z,3.28
2023-04-19T13:21:29.856Z,2.88
2023-04-19T13:23:59.207Z,3.20
2023-04-19T13:26:26.644Z,2.78
2023-04-19T13:28:56.383Z,3.00
2023-04-19T13:31:23.711Z,3.13
2023-04-19T13:33:51.017Z,3.00
2023-04-19T13:36:18.336Z,2.87
2023-04-19T13:38:45.669Z,3.20
2023-04-19T13:41:12.952Z,3.30
2023-04-19T13:43:40.304Z,2.90
2023-04-19T13:46:07.558Z,2.97
2023-04-19T13:48:34.804Z,3.00
2023-04-19T13:51:02.023Z,2.95
2023-04-19T13:53:29.628Z,3.07
2023-04-19T13:55:57.133Z,2.97
2023-04-19T13:58:27.293Z,2.80
2023-04-19T14:00:54.828Z,2.83
2023-04-19T14:03:23.284Z,2.78
2023-04-19T14:05:50.902Z,3.10
2023-04-19T14:08:18.117Z,3.07
2023-04-19T14:10:45.542Z,3.00
2023-04-19T14:13:12.853Z,3.13
2023-04-19T14:15:40.344Z,2.87
2023-04-19T14:18:07.637Z,2.80
2023-04-19T14:20:35.082Z,2.90
2023-04-19T14:23:02.587Z,3.00
2023-04-19T14:25:29.860Z,2.50
2023-04-19T14:27:57.121Z,2.80
2023-04-19T14:30:25.989Z,2.77
2023-04-19T14:32:53.282Z,2.63
2023-04-19T14:35:20.645Z,3.00
2023-04-19T14:37:47.880Z,2.83
2023-04-19T14:40:16.109Z,2.57
2023-04-19T14:45:10.689Z,2.87
2023-04-19T14:47:37.994Z,2.70
2023-04-19T14:50:05.392Z,2.67
2023-04-19T14:52:32.715Z,2.87
2023-04-19T14:55:00.180Z,2.60
2023-04-19T14:57:30.466Z,2.60
2023-04-19T14:59:58.309Z,2.60
2023-04-19T15:02:26.368Z,2.28
2023-04-19T15:04:54.073Z,2.60
2023-04-19T15:07:21.784Z,2.58
2023-04-19T15:09:49.111Z,2.40
2023-04-19T15:12:16.361Z,3.00
2023-04-19T15:14:45.950Z,2.30
2023-04-19T15:17:13.184Z,2.40
2023-04-19T15:19:40.471Z,2.40
2023-04-19T15:22:07.924Z,2.30
2023-04-19T15:24:35.918Z,2.33
2023-04-19T15:27:04.075Z,2.33
2023-04-19T15:31:58.549Z,2.53
2023-04-19T15:34:25.823Z,2.57
2023-04-19T15:36:55.569Z,2.50
2023-04-19T15:39:22.826Z,2.38
2023-04-19T15:41:50.378Z,2.35
2023-04-19T15:44:17.695Z,2.33
2023-04-19T15:46:45.025Z,1.90
2023-04-19T15:49:12.469Z,2.23
2023-04-19T15:51:39.767Z,2.50
2023-04-19T15:54:07.111Z,2.47
2023-04-19T15:56:34.366Z,2.23
2023-04-19T15:59:02.056Z,2.28
2023-04-19T16:01:29.268Z,2.40
2023-04-19T16:03:56.742Z,2.50
2023-04-19T16:06:24.139Z,2.50
2023-04-19T16:08:51.440Z,2.20
2023-04-19T16:11:18.685Z,2.23
2023-04-19T16:13:45.976Z,2.30
2023-04-19T16:16:13.219Z,2.53
2023-04-19T16:18:40.572Z,2.25
2023-04-19T16:21:07.794Z,2.10
2023-04-19T16:23:35.050Z,2.42
2023-04-19T16:26:02.281Z,2.10
2023-04-19T16:28:29.649Z,2.30
2023-04-19T16:30:56.904Z,2.13
2023-04-19T16:33:24.144Z,2.23
2023-04-19T16:35:51.384Z,2.10
2023-04-19T16:38:18.618Z,2.27
2023-04-19T16:40:48.547Z,2.38
2023-04-19T16:43:15.823Z,2.08
2023-04-19T16:45:43.137Z,2.30
2023-04-19T16:48:10.489Z,1.83
2023-04-19T16:50:37.800Z,2.30
2023-04-19T16:53:05.065Z,2.47
2023-04-19T16:55:32.284Z,2.00
2023-04-19T16:57:59.575Z,2.40
2023-04-19T17:00:26.852Z,2.47
2023-04-19T17:02:54.359Z,2.30
2023-04-19T17:05:22.122Z,2.22
2023-04-19T17:07:49.377Z,2.78
2023-04-19T17:10:16.659Z,2.30
2023-04-19T17:12:44.037Z,2.60
2023-04-19T17:15:11.567Z,2.60
2023-04-19T17:17:38.878Z,2.33
2023-04-19T17:20:06.541Z,2.40
2023-04-19T17:22:33.802Z,2.63
2023-04-19T17:25:01.023Z,2.40
2023-04-19T17:27:28.224Z,2.47
2023-04-19T17:29:55.480Z,2.15
2023-04-19T17:32:22.728Z,2.45
2023-04-19T17:34:50.013Z,2.10
2023-04-19T17:37:17.266Z,2.60
2023-04-19T17:39:44.504Z,2.30
2023-04-19T17:42:11.717Z,2.65
2023-04-19T17:44:38.972Z,2.30
2023-04-19T17:47:06.524Z,2.60
2023-04-19T17:49:33.903Z,2.70
2023-04-19T17:52:01.088Z,2.22
2023-04-19T17:54:28.320Z,2.30
2023-04-19T17:56:55.606Z,2.55
2023-04-19T17:59:23.245Z,2.20
2023-04-19T18:01:50.665Z,2.42
2023-04-19T18:04:20.136Z,2.08
2023-04-19T18:06:47.569Z,2.42
2023-04-19T18:09:15.051Z,2.17
2023-04-19T18:11:42.510Z,2.40
2023-04-19T18:14:09.851Z,2.23
2023-04-19T18:16:37.236Z,2.13
2023-04-19T18:19:04.470Z,2.03
2023-04-19T18:21:33.536Z,1.92
2023-04-19T18:24:00.835Z,2.42
2023-04-19T18:26:37.390Z,2.65
2023-04-19T18:29:04.696Z,2.80
2023-04-19T18:31:31.954Z,3.20
2023-04-19T18:33:59.413Z,2.77
2023-04-19T18:36:28.135Z,2.93
2023-04-19T18:38:55.710Z,3.22
2023-04-19T18:41:22.997Z,2.45
2023-04-19T18:44:08.236Z,2.70
2023-04-19T18:46:37.553Z,2.30
2023-04-19T18:49:04.768Z,2.33
2023-04-19T18:51:32.834Z,2.38
2023-04-19T18:57:03.844Z,2.47
2023-04-19T18:59:14.871Z,2.35
2023-04-19T19:01:45.207Z,2.30
2023-04-19T19:04:37.338Z,2.40
2023-04-19T19:07:10.949Z,2.47
2023-04-19T19:12:10.971Z,2.63
2023-04-19T19:14:39.033Z,2.20
2023-04-19T19:17:07.007Z,2.30
2023-04-19T19:19:34.324Z,2.45
2023-04-19T19:22:01.658Z,2.10
2023-04-19T19:24:28.868Z,2.47
2023-04-19T19:26:58.472Z,2.30
2023-04-19T19:29:25.838Z,2.03
2023-04-19T19:31:53.133Z,2.17
2023-04-19T19:34:27.654Z,2.38
2023-04-19T19:36:57.392Z,2.30
2023-04-19T19:39:24.640Z,2.40
2023-04-19T19:44:22.008Z,2.33
2023-04-19T19:46:49.379Z,2.22
2023-04-19T19:49:16.854Z,2.20
2023-04-19T19:51:57.691Z,2.10
2023-04-19T19:54:26.517Z,2.15
2023-04-19T19:57:25.190Z,1.93
2023-04-19T19:59:49.327Z,2.20
2023-04-19T20:02:19.958Z,2.03
2023-04-19T20:04:47.929Z,2.03
2023-04-19T20:09:45.632Z,1.75
2023-04-19T20:12:13.645Z,1.90
2023-04-19T20:17:08.257Z,2.00
2023-04-19T20:19:35.973Z,2.10
2023-04-19T20:22:03.276Z,2.17
2023-04-19T20:24:31.823Z,2.00
2023-04-19T20:26:59.094Z,1.80
2023-04-19T20:29:26.360Z,1.98
2023-04-19T20:31:53.862Z,1.90
2023-04-19T20:34:21.376Z,1.90
2023-04-19T20:36:51.593Z,2.22
2023-04-19T20:39:19.121Z,2.00
2023-04-19T20:41:48.589Z,1.90
2023-04-19T20:44:17.732Z,1.85
2023-04-19T20:46:47.477Z,1.90
2023-04-19T20:49:16.678Z,1.70
2023-04-19T20:51:44.175Z,1.98
2023-04-19T20:54:11.400Z,1.80
2023-04-19T20:56:38.635Z,1.90
2023-04-19T20:59:05.997Z,1.83
2023-04-19T21:01:36.681Z,1.73
2023-04-19T21:04:05.039Z,2.17
2023-04-19T21:06:32.532Z,2.28
2023-04-19T21:09:02.078Z,1.97
2023-04-19T21:11:29.292Z,1.83
2023-04-19T21:13:56.523Z,1.77
2023-04-19T21:16:23.820Z,1.85
2023-04-19T21:18:51.285Z,1.63
2023-04-19T21:21:18.519Z,2.13
2023-04-19T21:23:45.798Z,1.80
2023-04-19T21:26:13.071Z,1.70
2023-04-19T21:28:40.402Z,2.00
2023-04-19T21:31:07.666Z,1.63
2023-04-19T21:33:34.930Z,1.70
2023-04-19T21:36:04.657Z,1.73
2023-04-19T21:38:31.899Z,1.70
2023-04-19T21:40:59.143Z,1.67
2023-04-19T21:43:26.467Z,1.75
2023-04-19T21:45:53.717Z,1.67
2023-04-19T21:48:20.959Z,1.70
2023-04-19T21:50:48.502Z,1.50
2023-04-19T21:53:15.938Z,1.92
2023-04-19T21:55:43.163Z,1.60
2023-04-19T21:58:10.586Z,1.50
2023-04-19T22:00:37.842Z,1.80
2023-04-19T22:03:05.217Z,1.90
2023-04-19T22:05:32.920Z,1.60
2023-04-19T22:08:04.673Z,1.83
2023-04-19T22:10:34.154Z,2.00
2023-04-19T22:13:02.498Z,1.80
2023-04-19T22:15:29.847Z,1.70
2023-04-19T22:18:02.954Z,1.60
2023-04-19T22:20:32.108Z,1.50
2023-04-19T22:22:59.440Z,1.77
2023-04-19T22:25:26.712Z,1.70
2023-04-19T22:27:53.955Z,1.63
2023-04-19T22:30:21.305Z,1.73
2023-04-19T22:32:49.114Z,1.70
2023-04-19T22:35:16.435Z,1.60
2023-04-19T22:37:43.725Z,1.60
2023-04-19T22:40:11.199Z,1.70
2023-04-19T22:42:38.440Z,1.70
2023-04-19T22:45:06.191Z,1.63
2023-04-19T22:47:33.518Z,1.75
2023-04-19T22:50:00.796Z,1.43
2023-04-19T22:52:28.062Z,1.50
2023-04-19T22:54:57.793Z,1.63
2023-04-19T22:57:24.998Z,2.00
2023-04-19T22:59:52.243Z,1.80
2023-04-19T23:02:19.523Z,1.65
2023-04-19T23:04:49.145Z,1.80
2023-04-19T23:07:19.976Z,1.60
2023-04-19T23:09:47.303Z,1.80
2023-04-19T23:12:15.795Z,1.60
2023-04-19T23:14:43.024Z,1.58
2023-04-19T23:17:10.386Z,1.70
2023-04-19T23:19:38.784Z,1.60
2023-04-19T23:22:06.404Z,1.85
2023-04-19T23:24:33.711Z,1.50
2023-04-19T23:27:01.794Z,1.60
2023-04-19T23:29:29.032Z,1.50
2023-04-19T23:31:56.273Z,1.80
2023-04-19T23:34:23.594Z,1.60
2023-04-19T23:36:50.896Z,1.60
2023-04-19T23:39:18.586Z,1.67
2023-04-19T23:41:46.087Z,1.60
2023-04-19T23:44:13.321Z,1.40
2023-04-19T23:46:40.829Z,1.70
2023-04-19T23:49:08.856Z,1.60
2023-04-19T23:51:37.415Z,1.65
2023-04-19T23:54:05.292Z,1.60
2023-04-19T23:56:32.524Z,1.67
2023-04-19T23:58:59.767Z,1.67
